createdAt,value
2018-05-11T17:44:42.801Z,28.41
2018-05-11T17:47:13.395Z,28.35
2018-05-11T17:49:44.102Z,28.30
2018-05-11T17:55:35.963Z,28.17
2018-05-11T17:58:07.547Z,28.06
2018-05-11T18:00:39.270Z,27.84
2018-05-11T18:03:12.135Z,27.70
2018-05-11T18:05:44.022Z,27.50
2018-05-11T18:08:15.456Z,27.12
2018-05-11T18:10:48.475Z,27.26
2018-05-11T18:13:20.171Z,26.94
2018-05-11T18:15:52.403Z,26.84
2018-05-11T18:18:24.267Z,26.84
2018-05-11T18:20:56.525Z,26.83
2018-05-11T18:23:28.309Z,26.54
2018-05-11T18:26:00.915Z,26.64
2018-05-11T18:28:32.705Z,26.75
2018-05-11T18:31:04.449Z,26.74
2018-05-11T18:33:36.460Z,26.39
2018-05-11T18:36:09.073Z,25.93
2018-05-11T18:38:40.721Z,26.76
2018-05-11T18:41:12.858Z,27.07
2018-05-11T18:43:45.602Z,26.50
2018-05-11T18:46:17.446Z,26.19
2018-05-11T18:48:49.547Z,26.40
2018-05-11T18:51:21.719Z,26.38
2018-05-11T18:53:53.997Z,26.62
2018-05-11T18:56:25.634Z,26.50
2018-05-11T18:58:57.184Z,26.70
2018-05-11T19:01:28.672Z,26.63
2018-05-11T19:04:00.472Z,26.67
2018-05-11T19:06:31.979Z,26.55
2018-05-11T19:09:04.530Z,26.56
2018-05-11T19:11:36.404Z,26.51
2018-05-11T19:14:07.958Z,26.43
2018-05-11T19:16:39.435Z,26.47
2018-05-11T19:19:11.327Z,26.46
2018-05-11T19:21:43.120Z,26.42
2018-05-11T19:24:14.541Z,26.38
2018-05-11T19:26:46.838Z,26.32
2018-05-11T19:29:47.667Z,26.36
2018-05-11T19:32:16.628Z,26.44
2018-05-11T19:34:48.710Z,26.43
2018-05-11T19:37:26.093Z,26.41
2018-05-11T19:39:58.085Z,26.45
2018-05-11T19:42:30.595Z,26.39
2018-05-11T19:45:02.646Z,26.41
2018-05-11T19:47:40.307Z,26.39
2018-05-11T19:50:12.041Z,26.29
2018-05-11T19:52:45.094Z,26.25
2018-05-11T19:55:16.712Z,26.26
2018-05-11T19:57:49.067Z,26.26
2018-05-11T20:00:20.806Z,26.24
2018-05-11T20:02:52.597Z,26.19
2018-05-11T20:05:24.144Z,26.12
2018-05-11T20:07:56.233Z,26.02
2018-05-11T20:10:28.568Z,25.86
2018-05-11T20:13:00.248Z,25.78
2018-05-11T20:15:31.919Z,25.81
2018-05-11T20:18:03.771Z,25.90
2018-05-11T20:20:35.302Z,25.98
2018-05-11T20:23:08.405Z,25.53
2018-05-11T20:25:39.876Z,25.33
2018-05-11T20:28:11.498Z,25.30
2018-05-11T20:30:43.307Z,25.29
2018-05-11T20:33:14.869Z,25.34
2018-05-11T20:35:46.443Z,25.21
2018-05-11T20:38:18.440Z,25.19
2018-05-11T20:40:50.160Z,25.19
2018-05-11T20:43:21.677Z,25.10
2018-05-11T20:45:55.270Z,25.04
2018-05-11T20:48:26.791Z,24.88
2018-05-11T20:50:58.493Z,24.85
2018-05-11T20:53:30.764Z,24.77
2018-05-11T20:56:02.656Z,24.61
2018-05-11T20:58:34.574Z,24.58
2018-05-11T21:01:06.901Z,24.54
2018-05-11T21:03:38.720Z,24.46
2018-05-11T21:06:10.765Z,24.45
2018-05-11T21:08:43.311Z,24.44
2018-05-11T21:11:14.975Z,24.37
2018-05-11T21:13:46.772Z,24.39
2018-05-11T21:16:18.273Z,24.30
2018-05-11T21:18:49.812Z,24.21
2018-05-11T21:21:21.415Z,23.98
2018-05-11T21:23:53.475Z,24.00
2018-05-11T21:26:25.181Z,23.96
2018-05-11T21:28:58.779Z,23.92
2018-05-11T21:31:32.551Z,23.41
2018-05-11T21:34:04.360Z,23.32
2018-05-11T21:36:35.789Z,23.64
2018-05-11T21:39:08.335Z,23.68
2018-05-11T21:41:39.834Z,23.82
2018-05-11T21:44:11.450Z,23.71
2018-05-11T21:46:43.517Z,23.56
2018-05-11T21:49:15.007Z,23.54
2018-05-11T21:51:46.696Z,23.41
2018-05-11T21:54:19.364Z,23.29
2018-05-11T21:56:50.999Z,23.29
2018-05-11T21:59:22.540Z,23.24
2018-05-11T22:01:54.109Z,23.25
2018-05-11T22:04:25.752Z,23.42
2018-05-11T22:06:57.572Z,23.22
2018-05-11T22:09:30.190Z,23.31
2018-05-11T22:12:03.240Z,23.34
2018-05-11T22:14:35.586Z,23.46
2018-05-11T22:17:07.447Z,23.45
2018-05-11T22:19:39.407Z,23.40
2018-05-11T22:22:11.752Z,23.38
2018-05-11T22:24:44.552Z,23.29
2018-05-11T22:27:16.184Z,23.35
2018-05-11T22:29:47.708Z,23.44
2018-05-11T22:32:20.412Z,23.45
2018-05-11T22:34:51.885Z,23.45
2018-05-11T22:37:23.439Z,23.37
2018-05-11T22:39:55.472Z,23.27
2018-05-11T22:42:26.960Z,23.29
2018-05-11T22:44:58.750Z,23.25
2018-05-11T22:47:30.417Z,23.27
2018-05-11T22:50:02.194Z,23.27
2018-05-11T22:52:33.658Z,23.20
2018-05-11T22:55:05.930Z,23.25
2018-05-11T22:57:37.949Z,23.21
2018-05-11T23:00:09.629Z,23.07
2018-05-11T23:02:41.301Z,23.08
2018-05-11T23:05:12.749Z,23.14
2018-05-11T23:07:44.202Z,23.16
2018-05-11T23:10:15.945Z,23.15
2018-05-11T23:12:47.612Z,23.13
2018-05-11T23:15:19.056Z,23.16
2018-05-11T23:17:50.589Z,23.17
2018-05-11T23:20:22.150Z,23.18
2018-05-11T23:22:53.932Z,23.13
2018-05-11T23:25:25.396Z,23.16
2018-05-11T23:27:56.891Z,23.22
2018-05-11T23:30:29.914Z,23.18
2018-05-11T23:33:01.351Z,23.05
2018-05-11T23:35:32.942Z,23.15
2018-05-11T23:38:04.368Z,23.11
2018-05-11T23:40:35.861Z,23.10
2018-05-11T23:43:07.388Z,23.05
2018-05-11T23:45:39.105Z,23.08
2018-05-11T23:48:10.594Z,23.04
2018-05-11T23:50:42.022Z,22.99
2018-05-11T23:53:13.672Z,23.00
2018-05-11T23:55:45.563Z,22.96
2018-05-11T23:58:17.014Z,22.94
